Time;durP1;ratioP1;P1;durP2;ratioP2;P2;SDS_P1;SDS_P2;PMS_P1;PMS_P2;Temp;Humidity;BMP_temperature;BMP_pressure;BME280_temperature;BME280_humidity;BME280_pressure;Samples;Min_cycle;Max_cycle;Signal;HPM_P1;HPM_P2
2021/04/19 00:02:36;;;;;;;19.97;14.87;;;2.90;99.90;;;3.09;100.00;95179.00;2463758;55;26192;-62
2021/04/19 00:05:22;;;;;;;19.37;14.87;;;2.60;99.90;;;2.59;100.00;95184.00;2240367;56;26145;-61
2021/04/19 00:08:09;;;;;;;18.23;13.93;;;2.40;99.90;;;2.54;100.00;95191.00;2464229;55;26163;-62
2021/04/19 00:10:57;;;;;;;20.83;15.37;;;2.60;99.90;;;2.85;100.00;95187.00;2239712;56;26546;-62
2021/04/19 00:13:43;;;;;;;20.80;16.00;;;2.50;99.90;;;2.83;100.00;95187.00;2239090;56;26229;-61
2021/04/19 00:16:30;;;;;;;21.50;15.67;;;2.60;99.90;;;2.68;100.00;95178.00;2461960;55;26117;-61
2021/04/19 00:19:16;;;;;;;23.17;16.33;;;2.30;99.90;;;2.40;100.00;95186.00;2237584;56;26192;-62
2021/04/19 00:22:03;;;;;;;22.57;16.20;;;2.20;99.90;;;2.28;100.00;95186.00;2237264;56;26256;-61
2021/04/19 00:24:49;;;;;;;23.87;17.27;;;2.10;99.90;;;2.22;100.00;95185.00;2237758;56;26260;-62
2021/04/19 00:27:36;;;;;;;24.90;17.47;;;2.30;99.90;;;2.24;100.00;95163.00;2238057;56;25426;-62
2021/04/19 00:30:25;;;;;;;20.23;15.07;;;2.40;99.90;;;2.67;100.00;95181.00;2462373;55;26111;-62
2021/04/19 00:33:11;;;;;;;23.00;17.37;;;2.40;99.90;;;2.42;100.00;95182.00;2461598;55;26575;-61
2021/04/19 00:35:58;;;;;;;22.97;16.53;;;2.40;99.90;;;2.41;100.00;95174.00;2244557;56;26093;-62
2021/04/19 00:38:44;;;;;;;25.13;18.03;;;2.30;99.90;;;2.33;100.00;95179.00;2239066;56;26510;-62
2021/04/19 00:41:31;;;;;;;23.63;17.47;;;2.20;99.90;;;2.21;100.00;95184.00;2462496;55;26120;-62
2021/04/19 00:44:18;;;;;;;23.17;16.83;;;2.10;99.90;;;2.18;100.00;95185.00;2238843;56;26313;-62
2021/04/19 00:47:05;;;;;;;24.30;17.30;;;2.10;99.90;;;2.11;100.00;95176.00;2463754;55;26239;-62
2021/04/19 00:49:52;;;;;;;22.53;16.73;;;2.20;99.90;;;2.23;100.00;95177.00;2240279;56;27197;-62
2021/04/19 00:52:38;;;;;;;22.87;16.80;;;2.10;99.90;;;2.06;100.00;95172.00;2464423;55;26235;-62
2021/04/19 00:55:24;;;;;;;26.20;16.30;;;2.00;99.90;;;2.18;100.00;95176.00;2240583;56;26159;-62
2021/04/19 00:58:10;;;;;;;21.67;16.07;;;2.00;99.90;;;2.02;100.00;95189.00;2464018;55;26724;-62
2021/04/19 01:00:57;;;;;;;21.90;15.40;;;1.70;99.90;;;1.67;100.00;95178.00;2240374;56;26524;-62
2021/04/19 01:03:44;;;;;;;22.90;16.03;;;1.70;99.90;;;1.67;100.00;95183.00;2240459;56;26110;-62
2021/04/19 01:06:30;;;;;;;23.73;16.40;;;1.70;99.90;;;1.65;100.00;95189.00;2464149;55;26587;-62
2021/04/19 01:09:16;;;;;;;24.47;16.77;;;1.60;99.90;;;1.60;100.00;95191.00;2240852;56;26227;-62
2021/04/19 01:12:04;;;;;;;26.43;17.40;;;1.60;99.90;;;1.59;100.00;95186.00;2463941;55;26139;-62
2021/04/19 01:14:51;;;;;;;22.70;15.93;;;1.50;99.90;;;1.49;100.00;95188.00;2240670;56;26067;-62
2021/04/19 01:17:37;;;;;;;22.70;16.27;;;1.50;99.90;;;1.47;100.00;95187.00;2464245;55;26151;-62
2021/04/19 01:20:27;;;;;;;25.70;17.23;;;1.50;99.90;;;1.56;100.00;95183.00;2240449;56;26095;-62
2021/04/19 01:23:15;;;;;;;23.90;16.90;;;1.40;99.90;;;1.46;100.00;95188.00;2464570;55;26159;-62
2021/04/19 01:26:02;;;;;;;21.63;15.87;;;1.40;99.90;;;1.46;100.00;95176.00;2240401;56;26696;-62
2021/04/19 01:28:48;;;;;;;23.00;16.83;;;1.60;99.90;;;1.66;100.00;95177.00;2240780;56;26544;-62
2021/04/19 01:31:35;;;;;;;23.50;17.20;;;1.40;99.90;;;1.43;100.00;95173.00;2464073;55;26204;-61
2021/04/19 01:34:21;;;;;;;23.33;16.33;;;1.30;99.90;;;1.44;100.00;95187.00;2239430;56;26179;-62
2021/04/19 01:37:08;;;;;;;25.83;17.50;;;1.30;99.90;;;1.38;100.00;95182.00;2239272;56;28447;-62
2021/04/19 01:39:55;;;;;;;24.73;17.63;;;1.30;99.90;;;1.32;100.00;95188.00;2239114;56;26168;-62
2021/04/19 01:42:41;;;;;;;23.57;17.00;;;1.20;99.90;;;1.28;100.00;95190.00;2239345;56;26130;-61
2021/04/19 01:45:28;;;;;;;24.27;17.33;;;1.20;99.90;;;1.28;100.00;95185.00;2239240;56;26239;-61
2021/04/19 01:48:15;;;;;;;25.40;17.40;;;1.20;99.90;;;1.25;100.00;95185.00;2238682;56;26178;-61
2021/04/19 01:51:02;;;;;;;25.73;18.50;;;1.30;99.90;;;1.35;100.00;95185.00;2238373;56;26153;-61
2021/04/19 01:53:48;;;;;;;25.20;17.80;;;1.30;99.90;;;1.30;100.00;95182.00;2239220;56;26104;-61
2021/04/19 01:56:35;;;;;;;27.23;17.77;;;1.30;99.90;;;1.31;100.00;95187.00;2462370;55;26089;-62
2021/04/19 01:59:21;;;;;;;24.43;17.70;;;1.30;99.90;;;1.29;100.00;95183.00;2239253;56;26834;-62
2021/04/19 02:02:15;;;;;;;28.27;18.17;;;1.20;99.90;;;1.28;100.00;95190.00;2463955;55;26104;-62
2021/04/19 02:05:15;;;;;;;27.37;18.20;;;1.20;99.90;;;1.32;100.00;95183.00;2463879;56;26567;-61
2021/04/19 02:08:13;;;;;;;26.27;17.53;;;1.20;99.90;;;1.28;100.00;95190.00;2240286;56;26181;-62
2021/04/19 02:11:19;;;;;;;26.53;18.10;;;1.40;99.90;;;1.69;100.00;95182.00;2240631;56;26212;-60
2021/04/19 02:14:29;;;;;;;23.33;16.60;;;1.70;99.90;;;2.07;100.00;95173.00;2240468;56;26581;-61
2021/04/19 02:17:27;;;;;;;24.53;17.33;;;1.80;99.90;;;1.90;100.00;95166.00;2239309;56;26093;-62
2021/04/19 02:20:27;;;;;;;27.30;18.70;;;1.70;99.90;;;1.75;100.00;95165.00;2462252;55;26114;-61
2021/04/19 02:23:24;;;;;;;26.20;18.37;;;1.60;99.90;;;1.64;100.00;95171.00;2462365;55;26128;-62
2021/04/19 02:26:17;;;;;;;27.07;18.60;;;1.50;99.90;;;1.54;100.00;95165.00;2238955;56;26172;-61
2021/04/19 02:29:10;;;;;;;25.33;17.23;;;1.50;99.90;;;1.74;100.00;95163.00;2240379;56;26091;-61
2021/04/19 02:32:01;;;;;;;25.50;17.40;;;1.50;99.90;;;1.54;100.00;95168.00;2463890;55;25536;-62
2021/04/19 02:34:50;;;;;;;24.40;17.00;;;1.30;99.90;;;1.45;100.00;95179.00;2240496;56;26099;-61
2021/04/19 02:37:38;;;;;;;23.73;16.20;;;1.30;99.90;;;1.42;100.00;95178.00;2463964;55;26172;-62
2021/04/19 02:40:27;;;;;;;23.03;16.87;;;1.30;99.90;;;1.49;100.00;95177.00;2239869;56;26272;-62
2021/04/19 02:43:15;;;;;;;25.67;17.90;;;1.40;99.90;;;1.54;100.00;95171.00;2464123;55;26143;-61
2021/04/19 02:46:03;;;;;;;24.97;17.33;;;1.40;99.90;;;1.56;100.00;95183.00;2265280;56;25572;-62
2021/04/19 02:48:50;;;;;;;26.70;18.80;;;1.50;99.90;;;1.64;100.00;95172.00;2265420;56;25627;-62
2021/04/19 02:51:40;;;;;;;29.47;19.03;;;1.70;99.90;;;1.93;100.00;95164.00;2494302;55;26093;-61
2021/04/19 02:54:27;;;;;;;24.47;17.27;;;1.80;99.90;;;2.17;100.00;95164.00;2494676;55;26114;-62
2021/04/19 02:57:24;;;;;;;25.20;17.90;;;1.90;99.90;;;2.21;100.00;95161.00;2265289;56;26588;-61
2021/04/19 03:00:14;;;;;;;25.07;17.13;;;1.80;99.90;;;1.94;100.00;95153.00;2493951;55;26147;-62
2021/04/19 03:03:07;;;;;;;26.30;18.47;;;1.60;99.90;;;1.69;100.00;95156.00;2264075;55;26175;-62
2021/04/19 03:05:55;;;;;;;27.03;18.47;;;1.50;99.90;;;1.62;100.00;95158.00;2494189;55;26181;-62
2021/04/19 03:08:49;;;;;;;25.03;17.10;;;1.40;99.90;;;1.53;100.00;95164.00;2265422;56;26155;-63
2021/04/19 03:11:41;;;;;;;22.70;16.47;;;1.40;99.90;;;1.51;100.00;95167.00;2265283;56;26106;-64
2021/04/19 03:14:34;;;;;;;23.50;16.33;;;1.40;99.90;;;1.53;100.00;95160.00;2494426;55;26113;-63
2021/04/19 03:17:24;;;;;;;26.27;17.83;;;1.40;99.90;;;1.56;100.00;95166.00;2265131;56;26623;-64
2021/04/19 03:20:15;;;;;;;26.57;17.47;;;1.40;99.90;;;1.55;100.00;95162.00;2494215;55;26217;-63
2021/04/19 03:23:02;;;;;;;24.47;17.37;;;1.40;99.90;;;1.54;100.00;95162.00;2266038;56;26094;-63
2021/04/19 03:25:48;;;;;;;25.70;17.60;;;1.50;99.90;;;1.56;100.00;95164.00;2493778;55;26672;-62
2021/04/19 03:28:37;;;;;;;28.37;19.17;;;1.60;99.90;;;1.67;100.00;95165.00;2264373;56;26220;-62
2021/04/19 03:31:27;;;;;;;26.13;18.57;;;1.60;99.90;;;1.72;100.00;95170.00;2494682;55;26115;-62
2021/04/19 03:34:18;;;;;;;27.50;18.30;;;1.60;99.90;;;1.66;100.00;95172.00;2265572;56;26115;-63
2021/04/19 03:37:11;;;;;;;24.90;17.87;;;1.60;99.90;;;1.66;100.00;95175.00;2494611;55;26268;-63
2021/04/19 03:40:03;;;;;;;22.60;15.60;;;1.70;99.90;;;1.90;100.00;95169.00;2266339;56;26107;-63
2021/04/19 03:42:55;;;;;;;25.83;17.00;;;1.90;99.90;;;2.23;100.00;95164.00;2495145;55;26535;-62
2021/04/19 03:45:44;;;;;;;26.20;17.93;;;2.10;99.90;;;2.33;100.00;95152.00;2265460;56;26151;-63
2021/04/19 03:48:33;;;;;;;27.13;18.33;;;1.90;99.90;;;2.02;100.00;95155.00;2494205;55;26794;-63
2021/04/19 03:51:21;;;;;;;27.50;18.73;;;1.70;99.90;;;1.94;100.00;95158.00;2265402;56;26255;-63
2021/04/19 03:54:09;;;;;;;25.80;17.10;;;1.60;99.90;;;1.84;100.00;95160.00;2494722;55;26138;-63
2021/04/19 03:56:56;;;;;;;25.83;18.20;;;1.90;99.90;;;2.19;100.00;95141.00;2265414;56;26075;-63
2021/04/19 03:59:47;;;;;;;24.53;17.93;;;1.90;99.90;;;2.14;100.00;95152.00;2494542;55;26189;-63
2021/04/19 04:02:36;;;;;;;24.57;17.43;;;1.90;99.90;;;1.94;100.00;95150.00;2264906;56;26122;-63
2021/04/19 04:05:23;;;;;;;26.77;18.00;;;1.70;99.90;;;1.78;100.00;95164.00;2494293;55;26095;-63
2021/04/19 04:08:10;;;;;;;28.17;18.17;;;1.60;99.90;;;1.70;100.00;95158.00;2265610;56;26092;-62
2021/04/19 04:10:57;;;;;;;25.60;17.93;;;1.60;99.90;;;1.74;100.00;95160.00;2494580;55;26581;-63
2021/04/19 04:13:43;;;;;;;27.37;18.33;;;1.60;99.90;;;1.72;100.00;95161.00;2265457;56;26149;-63
2021/04/19 04:16:29;;;;;;;25.23;17.63;;;1.60;99.90;;;1.69;100.00;95164.00;2494499;55;26111;-63
2021/04/19 04:19:16;;;;;;;27.07;18.40;;;1.50;99.90;;;1.69;100.00;95166.00;2264445;56;26182;-63
2021/04/19 04:22:03;;;;;;;25.60;17.67;;;1.60;99.90;;;1.73;100.00;95161.00;2264159;56;26139;-62
2021/04/19 04:24:50;;;;;;;25.97;17.63;;;1.60;99.90;;;1.75;100.00;95165.00;2264628;56;26187;-63
2021/04/19 04:27:37;;;;;;;27.23;18.13;;;1.70;99.90;;;1.81;100.00;95169.00;2494542;55;26103;-63
2021/04/19 04:30:26;;;;;;;25.53;17.67;;;1.80;99.90;;;2.11;100.00;95172.00;2265132;56;26555;-63
2021/04/19 04:33:12;;;;;;;26.37;17.90;;;2.00;99.90;;;2.36;100.00;95166.00;2265172;56;26138;-63
2021/04/19 04:35:59;;;;;;;27.07;18.23;;;2.10;99.90;;;2.28;100.00;95163.00;2494355;55;26115;-63
2021/04/19 04:38:45;;;;;;;26.50;18.97;;;2.00;99.90;;;2.30;100.00;95160.00;2265706;56;25556;-62
2021/04/19 04:41:32;;;;;;;30.93;20.27;;;1.90;99.90;;;2.10;100.00;95152.00;2494483;55;25137;-62
2021/04/19 04:44:25;;;;;;;26.53;19.50;;;2.00;99.90;;;2.19;100.00;95152.00;2265357;56;26163;-63
2021/04/19 04:47:20;;;;;;;27.63;19.73;;;2.10;99.90;;;2.35;100.00;95157.00;2265278;56;26547;-63
2021/04/19 04:50:14;;;;;;;28.60;20.00;;;2.20;99.90;;;2.36;100.00;95161.00;2494757;55;26597;-63
2021/04/19 04:53:09;;;;;;;23.03;17.43;;;2.10;99.90;;;2.29;100.00;95168.00;2264917;56;26605;-63
2021/04/19 04:55:56;;;;;;;22.97;15.93;;;2.20;99.90;;;2.53;100.00;95178.00;2265382;56;26138;-63
2021/04/19 04:58:44;;;;;;;26.27;17.37;;;2.20;99.90;;;2.44;100.00;95172.00;2265680;56;26616;-62
2021/04/19 05:01:34;;;;;;;26.73;18.30;;;2.30;99.90;;;2.58;100.00;95169.00;2244520;56;26226;-63
2021/04/19 05:04:21;;;;;;;27.47;19.37;;;2.20;99.90;;;2.44;100.00;95166.00;2462376;55;26156;-63
2021/04/19 05:07:08;;;;;;;26.23;18.67;;;2.20;99.90;;;2.43;100.00;95172.00;2240299;56;26130;-62
2021/04/19 05:09:55;;;;;;;27.23;19.30;;;2.20;99.90;;;2.48;100.00;95176.00;2239695;56;26129;-62
2021/04/19 05:12:42;;;;;;;26.83;19.27;;;2.20;99.90;;;2.44;100.00;95174.00;2239140;56;26268;-63
2021/04/19 05:15:39;;;;;;;26.73;18.47;;;2.20;99.90;;;2.49;100.00;95180.00;2240206;56;26567;-64
2021/04/19 05:18:25;;;;;;;27.40;18.87;;;2.40;99.90;;;2.73;100.00;95180.00;2240310;56;26097;-63
2021/04/19 05:21:12;;;;;;;25.37;18.27;;;2.40;99.90;;;2.73;100.00;95181.00;2239623;56;26148;-63
2021/04/19 05:23:59;;;;;;;26.33;19.23;;;2.40;99.90;;;2.80;100.00;95182.00;2464036;56;26152;-61
2021/04/19 05:26:45;;;;;;;26.20;19.50;;;2.50;99.90;;;2.90;100.00;95184.00;2240408;56;25163;-62
2021/04/19 05:29:32;;;;;;;30.57;20.60;;;2.50;99.90;;;2.97;100.00;95185.00;2463796;56;26528;-62
2021/04/19 05:32:21;;;;;;;29.33;19.57;;;2.70;99.90;;;3.08;100.00;95185.00;2239920;56;26109;-60
2021/04/19 05:35:10;;;;;;;28.60;19.83;;;2.80;99.90;;;3.20;100.00;95185.00;2464431;56;26103;-60
2021/04/19 05:37:57;;;;;;;27.93;19.47;;;2.90;99.90;;;3.37;100.00;95181.00;2240432;56;26096;-60
2021/04/19 05:40:45;;;;;;;40.83;26.00;;;3.30;99.90;;;4.06;100.00;95174.00;2464306;56;26773;-60
2021/04/19 05:43:31;;;;;;;27.13;20.03;;;3.40;99.90;;;4.27;100.00;95172.00;2240602;56;26141;-60
2021/04/19 05:46:19;;;;;;;27.27;18.83;;;3.70;99.90;;;4.66;100.00;95163.00;2463660;56;26259;-61
2021/04/19 05:49:05;;;;;;;25.90;18.87;;;4.30;99.90;;;4.92;100.00;95151.00;2240195;56;26605;-61
2021/04/19 05:51:55;;;;;;;25.83;18.33;;;4.50;99.90;;;5.18;100.00;95157.00;2464549;56;26129;-61
2021/04/19 05:54:42;;;;;;;22.20;17.33;;;4.70;99.90;;;5.25;100.00;95166.00;2240610;56;26634;-61
2021/04/19 05:57:41;;;;;;;24.93;18.00;;;4.80;99.90;;;5.48;100.00;95164.00;2464018;55;26257;-61
2021/04/19 06:00:34;;;;;;;23.90;17.40;;;4.90;99.90;;;5.53;100.00;95167.00;2464235;55;26564;-61
2021/04/19 06:03:25;;;;;;;23.90;17.37;;;5.10;99.90;;;5.63;100.00;95165.00;2240301;56;26144;-61
2021/04/19 06:06:19;;;;;;;22.37;17.67;;;4.70;99.90;;;5.06;100.00;95166.00;2464023;55;26621;-62
2021/04/19 06:09:12;;;;;;;23.07;17.40;;;4.50;99.90;;;5.08;100.00;95167.00;2464139;55;26235;-61
2021/04/19 06:12:02;;;;;;;24.83;18.33;;;4.90;99.90;;;5.39;100.00;95167.00;2240798;56;26128;-62
2021/04/19 06:14:52;;;;;;;22.03;17.20;;;4.80;99.90;;;5.15;100.00;95169.00;2464282;55;26168;-61
2021/04/19 06:17:44;;;;;;;25.03;18.10;;;4.60;99.90;;;5.04;100.00;95168.00;2240008;56;26171;-62
2021/04/19 06:20:33;;;;;;;23.07;17.43;;;4.60;99.90;;;5.04;100.00;95163.00;2464218;55;26664;-62
2021/04/19 06:23:20;;;;;;;22.63;17.53;;;4.40;99.90;;;4.82;100.00;95163.00;2240751;56;26611;-62
2021/04/19 06:26:09;;;;;;;23.07;17.63;;;4.70;99.90;;;5.27;100.00;95166.00;2464231;55;26091;-61
2021/04/19 06:28:55;;;;;;;24.57;18.43;;;4.70;99.90;;;5.33;100.00;95168.00;2240523;56;26149;-63
2021/04/19 06:31:48;;;;;;;25.00;18.10;;;4.60;99.90;;;5.20;100.00;95167.00;2240441;56;26561;-61
2021/04/19 06:34:35;;;;;;;23.80;18.23;;;5.10;99.90;;;5.74;100.00;95164.00;2240249;56;26127;-61
2021/04/19 06:37:21;;;;;;;22.00;17.33;;;5.00;99.90;;;5.69;100.00;95156.00;2240413;56;26131;-61
2021/04/19 06:40:10;;;;;;;23.80;17.60;;;5.40;99.90;;;6.09;100.00;95151.00;2464464;55;26104;-62
2021/04/19 06:42:59;;;;;;;22.27;17.17;;;5.60;99.90;;;6.18;100.00;95156.00;2240246;56;26164;-61
2021/04/19 06:45:45;;;;;;;24.50;18.33;;;5.70;99.90;;;6.47;100.00;95156.00;2464397;55;26136;-62
2021/04/19 06:48:32;;;;;;;20.93;17.03;;;5.60;99.90;;;6.68;100.00;95156.00;2240505;56;26272;-62
2021/04/19 06:51:18;;;;;;;23.20;17.00;;;6.40;99.90;;;7.65;100.00;95147.00;2463911;55;26537;-62
2021/04/19 06:54:06;;;;;;;19.73;15.37;;;6.80;99.90;;;8.44;100.00;95147.00;2237885;56;26111;-62
2021/04/19 06:56:55;;;;;;;19.07;14.53;;;8.00;99.90;;;10.25;100.00;95142.00;2464248;55;27439;-62
2021/04/19 06:59:45;;;;;;;18.87;14.87;;;8.70;99.90;;;10.67;100.00;95142.00;2239978;56;26724;-61
2021/04/19 07:02:40;;;;;;;18.47;14.40;;;9.40;99.90;;;11.48;100.00;95128.00;2463006;55;26620;-61
2021/04/19 07:05:29;;;;;;;18.07;14.10;;;9.70;99.90;;;12.04;100.00;95124.00;2463785;55;26731;-62
2021/04/19 07:08:25;;;;;;;19.87;14.97;;;9.80;99.90;;;11.76;100.00;95135.00;2240531;56;26091;-62
2021/04/19 07:11:13;;;;;;;17.60;14.30;;;8.50;99.90;;;10.89;100.00;95131.00;2463838;55;26159;-61
2021/04/19 07:14:01;;;;;;;17.70;14.10;;;9.30;99.90;;;12.52;100.00;95131.00;2240822;56;26100;-61
2021/04/19 07:16:49;;;;;;;19.00;15.07;;;9.00;99.90;;;11.05;100.00;95120.00;2464175;55;26224;-62
2021/04/19 07:19:35;;;;;;;18.37;14.40;;;8.70;99.90;;;11.37;100.00;95121.00;2239254;56;26127;-60
2021/04/19 07:22:22;;;;;;;18.10;14.40;;;8.70;99.90;;;11.10;100.00;95123.00;2238858;56;26524;-61
2021/04/19 07:25:11;;;;;;;15.43;13.60;;;9.10;99.90;;;11.31;100.00;95117.00;2239159;56;26172;-61
2021/04/19 07:27:58;;;;;;;19.47;14.50;;;8.70;99.90;;;10.90;100.00;95119.00;2240036;56;26124;-61
2021/04/19 07:30:45;;;;;;;16.77;13.83;;;9.00;99.90;;;11.50;100.00;95122.00;2464385;55;26193;-62
2021/04/19 07:33:34;;;;;;;19.50;15.50;;;10.00;99.90;;;13.14;100.00;95122.00;2240354;56;26583;-61
2021/04/19 07:36:26;;;;;;;16.87;13.97;;;8.80;99.90;;;10.54;100.00;95121.00;2463632;55;26100;-62
2021/04/19 07:39:18;;;;;;;17.13;14.13;;;9.00;99.90;;;10.58;100.00;95122.00;2464153;55;26140;-62
2021/04/19 07:42:09;;;;;;;18.30;13.13;;;10.00;99.90;;;11.75;100.00;95115.00;2240487;56;26107;-61
2021/04/19 07:44:56;;;;;;;16.57;13.37;;;10.00;99.90;;;11.95;100.00;95108.00;2464152;55;26128;-61
2021/04/19 07:47:42;;;;;;;17.53;13.93;;;9.80;99.90;;;12.26;100.00;95111.00;2239819;56;26632;-61
2021/04/19 07:50:29;;;;;;;17.57;13.57;;;8.80;99.90;;;10.25;100.00;95123.00;2240221;56;26156;-61
2021/04/19 07:53:20;;;;;;;15.63;13.37;;;9.00;99.90;;;10.42;100.00;95117.00;2463982;55;26096;-63
2021/04/19 07:56:20;;;;;;;18.09;14.48;;;8.50;99.90;;;9.35;100.00;95120.00;2163906;56;19228307;-62
2021/04/19 07:59:23;;;;;;;17.73;13.73;;;7.90;99.90;;;8.96;100.00;95122.00;2240301;56;26635;-61
2021/04/19 08:02:17;;;;;;;16.27;13.43;;;8.60;99.90;;;9.87;100.00;95114.00;2240171;56;26593;-62
2021/04/19 08:05:06;;;;;;;16.90;13.30;;;9.00;99.90;;;10.28;100.00;95118.00;2463976;55;26546;-62
2021/04/19 08:07:55;;;;;;;16.73;13.23;;;8.90;99.90;;;9.58;100.00;95115.00;2240386;56;26155;-62
2021/04/19 08:10:44;;;;;;;17.20;13.93;;;8.90;99.90;;;10.26;100.00;95117.00;2240502;56;26148;-61
2021/04/19 08:13:30;;;;;;;15.50;12.73;;;9.30;99.90;;;11.47;100.00;95114.00;2463911;55;26212;-61
2021/04/19 08:16:18;;;;;;;21.00;14.60;;;8.90;99.90;;;10.76;100.00;95115.00;2239725;56;26124;-61
2021/04/19 08:19:06;;;;;;;19.13;14.43;;;8.90;99.90;;;10.61;100.00;95115.00;2240073;56;26649;-61
2021/04/19 08:21:52;;;;;;;16.70;13.60;;;8.50;99.90;;;10.16;100.00;95116.00;2464213;55;26620;-61
2021/04/19 08:24:38;;;;;;;18.63;14.90;;;9.00;99.90;;;10.67;100.00;95110.00;2240078;56;26124;-61
2021/04/19 08:27:26;;;;;;;16.93;13.80;;;8.70;99.90;;;10.29;100.00;95115.00;2464060;55;26124;-61
2021/04/19 08:30:16;;;;;;;16.60;13.40;;;8.60;99.90;;;9.97;100.00;95113.00;2240030;56;26498;-61
2021/04/19 08:33:04;;;;;;;22.63;13.07;;;9.30;99.90;;;11.31;100.00;95106.00;2463461;55;26160;-61
2021/04/19 08:35:52;;;;;;;17.77;13.33;;;9.80;99.90;;;11.25;100.00;95108.00;2240118;56;26621;-61
2021/04/19 08:38:39;;;;;;;15.53;12.87;;;9.90;99.90;;;11.31;100.00;95106.00;2463222;55;26224;-62
2021/04/19 08:41:25;;;;;;;15.07;12.70;;;9.40;99.90;;;11.03;100.00;95106.00;2238455;56;26255;-61
2021/04/19 08:44:12;;;;;;;14.70;12.77;;;9.40;99.90;;;11.24;100.00;95106.00;2238821;56;26198;-61
2021/04/19 08:47:01;;;;;;;15.60;12.97;;;9.90;99.90;;;12.93;100.00;95109.00;2239549;56;26163;-62
2021/04/19 08:49:48;;;;;;;13.60;11.80;;;11.60;99.90;;;15.61;96.12;95098.00;2463188;55;26213;-62
2021/04/19 08:52:36;;;;;;;15.18;12.65;;;12.60;99.90;;;15.86;84.70;95099.00;2239981;56;26230;-61
2021/04/19 08:55:23;;;;;;;13.55;11.85;;;12.50;99.90;;;15.89;86.66;95099.00;2464151;55;26224;-61
2021/04/19 08:58:13;;;;;;;14.77;12.25;;;12.70;99.90;;;16.64;84.29;95092.00;2239981;56;26127;-62
2021/04/19 09:01:01;;;;;;;14.18;12.68;;;13.20;99.90;;;17.02;79.80;95088.00;2463821;55;26206;-62
2021/04/19 09:04:04;;;;;;;12.93;11.48;;;13.40;99.90;;;16.65;68.17;95102.00;2240584;56;26553;-61
2021/04/19 09:06:52;;;;;;;14.07;12.32;;;13.90;99.90;;;17.14;62.85;95097.00;2240494;56;26115;-61
2021/04/19 09:09:41;;;;;;;15.77;13.38;;;13.20;99.90;;;15.22;72.08;95099.00;2464575;55;26135;-61
2021/04/19 09:12:30;;;;;;;15.90;12.27;;;11.30;99.90;;;12.66;100.00;95099.00;2240432;56;26303;-61
2021/04/19 09:15:28;;;;;;;13.70;11.70;;;10.60;99.90;;;12.39;100.00;95108.00;2464477;55;26096;-61
2021/04/19 09:18:20;;;;;;;14.50;11.73;;;11.30;99.90;;;13.29;100.00;95103.00;2464031;55;26239;-61
2021/04/19 09:21:08;;;;;;;14.33;12.17;;;12.10;99.90;;;13.28;96.63;95105.00;2240411;56;26200;-61
2021/04/19 09:23:57;;;;;;;14.57;12.70;;;10.60;99.90;;;11.67;100.00;95100.00;2464668;55;26130;-61
2021/04/19 09:26:52;;;;;;;14.97;12.50;;;11.20;99.90;;;13.34;100.00;95096.00;2240443;56;26136;-61
2021/04/19 09:29:47;;;;;;;14.15;11.82;;;11.40;99.90;;;13.83;100.00;95091.00;2240491;56;26531;-61
2021/04/19 09:32:33;;;;;;;13.97;11.10;;;11.30;99.90;;;13.10;96.73;95101.00;2463736;55;26570;-61
2021/04/19 09:35:44;;;;;;;13.53;10.87;;;10.20;99.90;;;12.01;100.00;95093.00;2240509;56;26117;-61
2021/04/19 09:38:54;;;;;;;12.40;10.80;;;10.80;99.90;;;12.34;98.77;95093.00;2240525;56;26145;-61
2021/04/19 09:41:49;;;;;;;13.47;10.93;;;11.70;99.90;;;13.06;93.31;95092.00;2240454;56;26177;-62
2021/04/19 09:44:48;;;;;;;12.40;10.87;;;12.50;99.90;;;13.31;89.20;95089.00;2464365;55;26184;-62
2021/04/19 09:47:50;;;;;;;11.83;10.37;;;12.60;99.90;;;13.26;87.04;95085.00;2464005;55;26124;-62
2021/04/19 09:50:41;;;;;;;13.40;10.30;;;12.00;99.90;;;11.87;97.54;95084.00;2240422;56;26224;-62
2021/04/19 09:53:30;;;;;;;13.23;10.37;;;10.70;99.90;;;10.71;100.00;95093.00;2239452;56;26544;-62
2021/04/19 09:56:23;;;;;;;12.80;10.60;;;9.70;99.90;;;10.29;100.00;95083.00;2240228;56;26550;-62
2021/04/19 09:59:17;;;;;;;13.90;10.83;;;9.60;99.90;;;10.27;100.00;95087.00;2240953;56;26151;-62
2021/04/19 10:02:03;;;;;;;14.90;11.33;;;9.30;99.90;;;10.27;100.00;95084.00;2464095;55;26167;-61
2021/04/19 10:04:51;;;;;;;13.50;11.30;;;9.20;99.90;;;9.92;100.00;95083.00;2240010;56;26261;-61
2021/04/19 10:07:43;;;;;;;13.67;10.23;;;9.00;99.90;;;9.70;100.00;95081.00;2240431;56;26653;-61
2021/04/19 10:10:30;;;;;;;13.50;10.60;;;8.80;99.90;;;9.47;100.00;95078.00;2240088;56;26095;-61
2021/04/19 10:13:24;;;;;;;12.53;10.57;;;8.90;99.90;;;9.57;100.00;95082.00;2240247;56;26168;-61
2021/04/19 10:16:13;;;;;;;15.10;11.00;;;8.90;99.90;;;9.64;100.00;95075.00;2238173;56;26163;-61
2021/04/19 10:19:00;;;;;;;12.37;9.73;;;9.40;99.90;;;10.37;100.00;95067.00;2462500;55;26124;-61
2021/04/19 10:21:59;;;;;;;13.83;10.30;;;9.80;99.90;;;11.01;100.00;95058.00;2240646;56;26199;-61
2021/04/19 10:24:56;;;;;;;12.10;10.27;;;9.70;99.90;;;10.91;100.00;95058.00;2464542;55;26087;-61
2021/04/19 10:27:48;;;;;;;12.67;10.47;;;9.90;99.90;;;11.24;100.00;95058.00;2464970;55;26203;-61
2021/04/19 10:30:34;;;;;;;12.10;10.07;;;11.30;99.90;;;13.53;94.03;95041.00;2239748;56;26276;-61
2021/04/19 10:33:27;;;;;;;11.87;10.03;;;12.30;99.90;;;13.93;84.29;95049.00;2238560;56;26182;-61
2021/04/19 10:36:17;;;;;;;13.87;10.87;;;11.30;99.90;;;12.92;100.00;95052.00;2238345;56;26296;-61
2021/04/19 10:39:14;;;;;;;12.87;10.63;;;11.40;99.90;;;12.91;100.00;95045.00;2462968;55;26125;-61
2021/04/19 10:42:04;;;;;;;13.67;10.70;;;11.50;99.90;;;12.98;100.00;95043.00;2239054;56;26494;-60
2021/04/19 10:44:51;;;;;;;13.25;10.82;;;11.40;99.90;;;13.02;100.00;95046.00;2462911;55;26594;-61
2021/04/19 10:47:37;;;;;;;12.57;11.10;;;11.80;99.90;;;13.28;95.91;95038.00;2239047;56;26149;-61
2021/04/19 10:50:32;;;;;;;14.00;11.32;;;11.40;99.90;;;12.74;100.00;95041.00;2463395;55;26100;-61
2021/04/19 10:53:34;;;;;;;13.70;10.70;;;11.40;99.90;;;12.87;100.00;95041.00;2240456;56;26796;-61
2021/04/19 10:56:21;;;;;;;14.90;10.70;;;11.90;99.90;;;13.58;100.00;95034.00;2240352;56;26168;-61
2021/04/19 10:59:09;;;;;;;16.35;10.65;;;12.70;99.90;;;14.73;92.93;95030.00;2464547;55;26160;-61
2021/04/19 11:02:03;;;;;;;14.93;11.52;;;13.60;99.90;;;16.24;77.00;95023.00;2239819;56;26550;-61
2021/04/19 11:04:50;;;;;;;13.15;11.45;;;13.90;99.90;;;15.64;85.05;95029.00;2237062;56;26561;-61
2021/04/19 11:07:42;;;;;;;12.75;9.70;;;13.50;99.90;;;15.58;77.76;95019.00;2240439;56;26135;-61
2021/04/19 11:10:29;;;;;;;11.40;10.07;;;13.80;99.90;;;15.67;61.20;95023.00;2240974;56;26152;-61
2021/04/19 11:13:25;;;;;;;11.90;10.60;;;13.70;99.90;;;15.44;65.06;95012.00;2241057;56;26588;-61
2021/04/19 11:16:20;;;;;;;13.95;10.07;;;13.70;99.90;;;15.82;74.70;95008.00;2240946;56;26098;-61
2021/04/19 11:19:06;;;;;;;13.88;10.75;;;13.50;99.90;;;15.27;76.62;95008.00;2464724;55;26168;-61
2021/04/19 11:21:53;;;;;;;11.18;9.55;;;14.60;99.90;;;17.35;67.94;95005.00;2241011;56;26288;-62
2021/04/19 11:24:40;;;;;;;10.40;9.30;;;15.20;99.90;;;17.75;53.20;95000.00;2241007;56;26091;-61
2021/04/19 11:27:27;;;;;;;12.23;10.00;;;15.40;99.90;;;17.44;50.89;95006.00;2240044;56;26538;-61
2021/04/19 11:30:26;;;;;;;14.70;9.88;;;16.10;99.90;;;17.84;51.79;94997.00;2239250;56;26112;-62
2021/04/19 11:33:15;;;;;;;11.50;10.30;;;16.90;99.90;;;18.78;54.44;94993.00;2238957;56;26089;-61
2021/04/19 11:36:05;;;;;;;11.88;9.80;;;14.10;99.90;;;15.05;68.07;94997.00;2462247;55;26658;-61
2021/04/19 11:38:51;;;;;;;12.00;10.20;;;12.30;99.90;;;13.61;80.83;95008.00;2238531;56;26649;-61
2021/04/19 11:41:38;;;;;;;11.10;9.57;;;11.80;99.90;;;13.14;97.18;95006.00;2463403;55;26554;-61
2021/04/19 11:44:46;;;;;;;14.27;10.50;;;11.10;99.90;;;11.73;100.00;95012.00;2238729;56;26582;-62